Time;durP1;ratioP1;P1;durP2;ratioP2;P2;SDS_P1;SDS_P2;PMS_P1;PMS_P2;Temp;Humidity;BMP_temperature;BMP_pressure;BME280_temperature;BME280_humidity;BME280_pressure;Samples;Min_cycle;Max_cycle;Signal;HPM_P1;HPM_P2
2021/09/17 00:01:17;;;;;;;15.27;8.98;;;14.90;99.90;;;;;;5050115;28;20750;-55
2021/09/17 00:03:43;;;;;;;13.50;9.35;;;15.00;99.90;;;;;;5049337;28;20388;-55
2021/09/17 00:06:09;;;;;;;15.45;9.93;;;14.90;99.90;;;;;;5050167;28;20388;-54
2021/09/17 00:08:35;;;;;;;13.00;8.60;;;16.30;99.90;;;;;;5049483;28;20393;-55
2021/09/17 00:11:00;;;;;;;13.75;9.20;;;15.00;99.90;;;;;;5049890;28;20380;-55
2021/09/17 00:13:26;;;;;;;13.67;8.87;;;15.00;99.90;;;;;;5049508;28;20381;-55
2021/09/17 00:15:52;;;;;;;16.08;9.57;;;15.00;99.90;;;;;;5049395;28;20401;-54
2021/09/17 00:18:18;;;;;;;13.82;8.55;;;14.90;99.90;;;;;;5049878;28;20385;-55
2021/09/17 00:20:44;;;;;;;13.90;8.80;;;15.00;99.90;;;;;;5049358;28;20416;-55
2021/09/17 00:23:09;;;;;;;15.87;9.50;;;15.00;99.90;;;;;;5049817;28;20881;-55
2021/09/17 00:25:35;;;;;;;18.33;9.93;;;15.10;99.90;;;;;;5048723;28;20405;-55
2021/09/17 00:28:01;;;;;;;14.20;9.30;;;15.10;99.90;;;;;;5049676;28;20465;-55
2021/09/17 00:30:28;;;;;;;15.27;10.38;;;15.10;99.90;;;;;;5048872;28;20382;-55
2021/09/17 00:32:56;;;;;;;13.98;9.05;;;15.20;99.90;;;;;;5049220;28;20389;-55
2021/09/17 00:35:22;;;;;;;15.45;9.80;;;15.10;99.90;;;;;;5049351;28;20416;-55
2021/09/17 00:37:48;;;;;;;17.92;9.60;;;15.10;99.90;;;;;;5048824;28;20433;-55
2021/09/17 00:40:14;;;;;;;14.45;8.80;;;15.10;99.90;;;;;;5049517;28;20979;-56
2021/09/17 00:42:40;;;;;;;14.90;9.15;;;15.20;99.90;;;;;;5055496;28;20397;-55
2021/09/17 00:45:08;;;;;;;15.47;8.90;;;15.20;99.90;;;;;;5064678;28;20388;-56
2021/09/17 00:47:36;;;;;;;15.15;8.88;;;15.10;99.90;;;;;;5068559;28;20376;-56
2021/09/17 00:50:06;;;;;;;15.68;8.50;;;15.10;99.90;;;;;;5069420;28;20403;-55
2021/09/17 00:52:32;;;;;;;13.87;8.97;;;15.10;99.90;;;;;;5068777;28;20391;-56
2021/09/17 00:54:57;;;;;;;16.25;10.00;;;15.10;99.90;;;;;;5069025;28;20431;-56
2021/09/17 00:57:23;;;;;;;14.33;9.20;;;15.20;99.90;;;;;;5069763;28;20511;-56
2021/09/17 00:59:49;;;;;;;13.50;8.48;;;15.10;99.90;;;;;;5068657;28;20506;-55
2021/09/17 01:02:15;;;;;;;15.70;8.53;;;15.20;99.90;;;;;;5069110;28;20463;-55
2021/09/17 01:04:41;;;;;;;15.18;9.10;;;15.30;99.90;;;;;;5068543;28;20478;-55
2021/09/17 01:07:07;;;;;;;16.30;9.32;;;15.30;99.90;;;;;;5069209;28;20418;-56
2021/09/17 01:09:33;;;;;;;15.00;9.70;;;15.40;99.90;;;;;;5068584;28;20403;-55
2021/09/17 01:12:03;;;;;;;14.75;8.95;;;15.40;99.90;;;;;;5068840;28;20398;-55
2021/09/17 01:14:34;;;;;;;14.95;8.75;;;15.40;99.90;;;;;;5069059;28;20446;-55
2021/09/17 01:17:01;;;;;;;15.68;9.60;;;15.50;99.90;;;;;;5069107;28;20379;-56
2021/09/17 01:19:27;;;;;;;14.32;9.23;;;15.30;99.90;;;;;;5068869;28;20873;-55
2021/09/17 01:21:58;;;;;;;15.45;9.38;;;15.40;99.90;;;;;;5068726;28;20384;-55
2021/09/17 01:24:24;;;;;;;14.27;9.43;;;15.40;99.90;;;;;;5069253;28;20408;-55
2021/09/17 01:26:50;;;;;;;15.43;9.32;;;15.30;99.90;;;;;;5068414;28;20380;-54
2021/09/17 01:29:16;;;;;;;17.20;9.83;;;15.30;99.90;;;;;;5067998;28;20885;-56
2021/09/17 01:31:41;;;;;;;16.58;9.43;;;16.40;99.90;;;;;;5068134;28;20379;-55
2021/09/17 01:34:08;;;;;;;14.30;9.80;;;15.40;99.90;;;;;;5068756;28;20744;-55
2021/09/17 01:36:34;;;;;;;17.67;10.50;;;15.50;99.90;;;;;;5068167;28;20839;-55
2021/09/17 01:39:00;;;;;;;17.20;10.30;;;15.40;99.90;;;;;;5069000;28;20379;-55
2021/09/17 01:41:25;;;;;;;17.40;10.10;;;15.40;99.90;;;;;;5069535;28;20414;-55
2021/09/17 01:43:51;;;;;;;16.10;10.20;;;15.40;99.90;;;;;;5072398;28;20383;-57
2021/09/17 01:46:16;;;;;;;17.33;10.45;;;15.40;99.90;;;;;;5072606;28;20487;-54
2021/09/17 01:48:42;;;;;;;13.73;9.30;;;15.40;99.90;;;;;;5071891;28;20389;-54
2021/09/17 01:51:08;;;;;;;15.37;9.70;;;15.30;99.90;;;;;;5072638;28;20845;-56
2021/09/17 01:53:34;;;;;;;15.68;9.52;;;15.30;99.90;;;;;;5071868;28;20915;-55
2021/09/17 01:56:00;;;;;;;14.88;9.30;;;15.20;99.90;;;;;;5070974;28;20773;-54
2021/09/17 01:58:26;;;;;;;13.35;8.80;;;15.10;99.90;;;;;;5072575;28;20371;-54
2021/09/17 02:00:52;;;;;;;16.00;9.27;;;15.00;99.90;;;;;;5071884;28;20380;-54
2021/09/17 02:03:17;;;;;;;14.77;9.20;;;15.00;99.90;;;;;;5072200;28;20376;-54
2021/09/17 02:05:43;;;;;;;13.65;8.80;;;15.10;99.90;;;;;;5071658;28;20388;-54
2021/09/17 02:08:09;;;;;;;13.32;8.70;;;15.10;99.90;;;;;;5072217;28;20388;-54
2021/09/17 02:10:35;;;;;;;15.32;9.20;;;15.10;99.90;;;;;;5071863;28;20418;-55
2021/09/17 02:13:02;;;;;;;14.57;9.05;;;15.20;99.90;;;;;;5071969;28;20411;-55
2021/09/17 02:15:28;;;;;;;14.32;8.35;;;15.20;99.90;;;;;;5071376;28;20785;-55
2021/09/17 02:17:53;;;;;;;13.63;8.75;;;15.20;99.90;;;;;;5071824;28;20376;-55
2021/09/17 02:20:19;;;;;;;13.40;8.55;;;15.30;99.90;;;;;;5072053;28;20383;-54
2021/09/17 02:22:45;;;;;;;14.30;9.20;;;15.30;99.90;;;;;;5070933;28;20849;-55
2021/09/17 02:25:11;;;;;;;15.75;9.77;;;13.80;99.90;;;;;;5072122;28;20435;-56
2021/09/17 02:27:37;;;;;;;17.93;9.37;;;15.30;99.90;;;;;;5071204;28;20492;-55
2021/09/17 02:30:05;;;;;;;12.80;8.60;;;15.30;99.90;;;;;;5072061;28;20744;-56
2021/09/17 02:32:31;;;;;;;13.35;8.70;;;15.30;99.90;;;;;;5071109;28;20529;-55
2021/09/17 02:34:56;;;;;;;14.60;8.47;;;15.30;99.90;;;;;;5072047;28;20963;-55
2021/09/17 02:37:22;;;;;;;14.03;8.47;;;15.30;99.90;;;;;;5071357;28;20454;-55
2021/09/17 02:39:48;;;;;;;15.60;8.68;;;15.30;99.90;;;;;;5070770;28;20466;-56
2021/09/17 02:42:13;;;;;;;14.10;8.45;;;15.40;99.90;;;;;;5071850;28;20388;-56
2021/09/17 02:44:39;;;;;;;11.67;7.50;;;15.40;99.90;;;;;;5071081;28;20433;-55
2021/09/17 02:47:05;;;;;;;12.90;8.40;;;15.40;99.90;;;;;;5070251;28;20371;-55
2021/09/17 02:49:33;;;;;;;14.07;8.98;;;15.40;99.90;;;;;;5070807;28;20405;-55
2021/09/17 02:52:01;;;;;;;12.48;7.97;;;15.40;99.90;;;;;;5072147;28;20407;-55
2021/09/17 02:54:27;;;;;;;13.73;8.45;;;15.30;99.90;;;;;;5071250;28;20509;-54
2021/09/17 02:56:52;;;;;;;13.23;8.45;;;15.10;99.90;;;;;;5070940;28;20413;-54
2021/09/17 02:59:18;;;;;;;11.60;7.75;;;15.00;99.90;;;;;;5071397;28;20540;-55
2021/09/17 03:01:44;;;;;;;16.75;9.00;;;15.10;99.90;;;;;;5070521;28;20375;-55
2021/09/17 03:04:10;;;;;;;14.27;8.20;;;15.20;99.90;;;;;;5071524;28;20396;-55
2021/09/17 03:06:35;;;;;;;13.53;7.90;;;15.20;99.90;;;;;;5070523;28;20375;-55
2021/09/17 03:09:01;;;;;;;13.32;8.90;;;15.20;99.90;;;;;;5071217;28;20387;-55
2021/09/17 03:11:27;;;;;;;12.60;8.30;;;15.20;99.90;;;;;;5071076;28;20874;-55
2021/09/17 03:13:52;;;;;;;14.45;8.93;;;15.20;99.90;;;;;;5070197;28;20749;-54
2021/09/17 03:16:18;;;;;;;13.05;8.45;;;15.30;99.90;;;;;;5070579;28;20482;-55
2021/09/17 03:18:44;;;;;;;13.70;8.17;;;15.30;99.90;;;;;;5070420;28;20383;-55
2021/09/17 03:21:10;;;;;;;13.50;8.60;;;15.40;99.90;;;;;;5070899;28;20384;-54
2021/09/17 03:23:35;;;;;;;14.57;7.90;;;15.40;99.90;;;;;;5070091;28;20376;-55
2021/09/17 03:26:01;;;;;;;14.07;8.50;;;15.30;99.90;;;;;;5071057;28;20479;-55
2021/09/17 03:28:27;;;;;;;13.35;8.75;;;15.30;99.90;;;;;;5071110;28;20521;-56
2021/09/17 03:30:52;;;;;;;13.37;8.23;;;15.30;99.90;;;;;;5070225;28;20375;-54
2021/09/17 03:33:18;;;;;;;13.70;8.20;;;15.40;99.90;;;;;;5070488;28;20378;-55
2021/09/17 03:35:44;;;;;;;14.88;8.38;;;15.30;99.90;;;;;;5069767;28;20416;-54
2021/09/17 03:38:11;;;;;;;16.55;9.00;;;15.30;99.90;;;;;;5070740;28;20416;-54
2021/09/17 03:40:38;;;;;;;12.57;7.50;;;15.10;99.90;;;;;;5070247;28;20384;-55
2021/09/17 03:43:04;;;;;;;14.47;8.30;;;15.10;99.90;;;;;;5070165;28;20376;-54
2021/09/17 03:45:32;;;;;;;13.00;8.30;;;15.10;99.90;;;;;;5070274;28;20383;-55
2021/09/17 03:48:08;;;;;;;14.32;9.40;;;15.10;99.90;;;;;;5069310;28;20415;-55
2021/09/17 03:50:34;;;;;;;12.57;8.52;;;15.10;99.90;;;;;;5069511;28;20398;-55
2021/09/17 03:53:00;;;;;;;15.33;7.83;;;15.00;99.90;;;;;;5070364;28;20363;-54
2021/09/17 03:55:26;;;;;;;12.95;8.32;;;14.90;99.90;;;;;;5069670;28;20454;-54
2021/09/17 03:57:51;;;;;;;16.40;9.40;;;14.80;99.90;;;;;;5068868;28;21015;-55
2021/09/17 04:00:17;;;;;;;12.93;8.80;;;14.80;99.90;;;;;;5070007;28;20439;-55
2021/09/17 04:02:43;;;;;;;15.52;9.40;;;14.60;99.90;;;;;;5069033;28;20483;-55
2021/09/17 04:05:09;;;;;;;14.23;9.13;;;14.60;99.90;;;;;;5069570;28;20383;-54
2021/09/17 04:07:39;;;;;;;16.10;10.00;;;14.50;99.90;;;;;;5069181;28;20852;-55
2021/09/17 04:10:06;;;;;;;16.90;10.00;;;14.40;99.90;;;;;;5070198;28;20380;-55
2021/09/17 04:12:32;;;;;;;13.73;9.30;;;14.30;99.90;;;;;;5069455;28;20466;-55
2021/09/17 04:14:58;;;;;;;14.30;9.20;;;14.20;99.90;;;;;;5068668;28;20494;-54
2021/09/17 04:17:23;;;;;;;15.05;9.50;;;14.20;99.90;;;;;;5069705;28;20414;-54
2021/09/17 04:19:49;;;;;;;15.73;9.50;;;14.20;99.90;;;;;;5069106;28;20395;-54
2021/09/17 04:22:15;;;;;;;18.63;9.70;;;14.30;99.90;;;;;;5069706;28;20387;-54
2021/09/17 04:24:40;;;;;;;15.45;9.50;;;14.30;99.90;;;;;;5067739;28;20450;-54
2021/09/17 04:27:06;;;;;;;16.50;10.30;;;14.20;99.90;;;;;;5068502;28;20399;-54
2021/09/17 04:29:31;;;;;;;16.10;9.70;;;14.20;99.90;;;;;;5069449;28;20376;-54
2021/09/17 04:31:57;;;;;;;15.60;10.13;;;14.20;99.90;;;;;;5069457;28;20403;-55
2021/09/17 04:34:23;;;;;;;15.70;9.73;;;14.10;99.90;;;;;;5069272;28;20418;-54
2021/09/17 04:36:49;;;;;;;17.15;10.43;;;14.10;99.90;;;;;;5092157;28;20404;-54
2021/09/17 04:39:15;;;;;;;17.70;9.80;;;14.10;99.90;;;;;;5069605;28;20384;-55
2021/09/17 04:41:40;;;;;;;17.85;9.80;;;14.10;99.90;;;;;;5067711;28;20729;-54
2021/09/17 04:44:06;;;;;;;17.30;10.20;;;14.10;99.90;;;;;;5069537;28;20426;-54
2021/09/17 04:46:32;;;;;;;17.90;10.07;;;13.90;99.90;;;;;;5069151;28;20380;-54
2021/09/17 04:48:57;;;;;;;16.00;10.30;;;13.90;99.90;;;;;;5068954;28;20847;-54
2021/09/17 04:51:23;;;;;;;19.23;10.67;;;13.80;99.90;;;;;;5069297;28;20726;-55
2021/09/17 04:53:49;;;;;;;16.15;10.05;;;13.70;99.90;;;;;;5069007;28;20427;-54
2021/09/17 04:56:14;;;;;;;18.27;11.25;;;13.60;99.90;;;;;;5068923;28;20428;-55
2021/09/17 04:58:40;;;;;;;16.50;10.67;;;13.60;99.90;;;;;;5067396;28;20861;-55
2021/09/17 05:01:05;;;;;;;19.10;11.65;;;13.70;99.90;;;;;;5069323;28;20383;-55
2021/09/17 05:03:31;;;;;;;18.10;11.05;;;13.70;99.90;;;;;;5068603;28;20380;-55
2021/09/17 05:05:57;;;;;;;20.73;11.83;;;13.60;99.90;;;;;;5069684;28;20398;-55
2021/09/17 05:08:22;;;;;;;20.70;12.13;;;13.70;99.90;;;;;;5073119;28;20831;-54
2021/09/17 05:10:48;;;;;;;23.33;12.80;;;13.70;99.90;;;;;;5079935;28;20380;-54
2021/09/17 05:13:13;;;;;;;20.57;11.67;;;13.80;99.90;;;;;;5076216;28;20394;-54
2021/09/17 05:15:39;;;;;;;20.02;11.80;;;13.70;99.90;;;;;;5069449;28;20443;-53
2021/09/17 05:18:05;;;;;;;20.30;11.80;;;13.70;99.90;;;;;;5086596;28;20461;-52
2021/09/17 05:20:31;;;;;;;19.07;11.73;;;13.70;99.90;;;;;;5076579;28;20425;-56
2021/09/17 05:22:56;;;;;;;22.58;11.88;;;13.80;99.90;;;;;;5088482;28;20388;-52
2021/09/17 05:25:22;;;;;;;19.03;11.67;;;13.90;99.90;;;;;;5080992;28;20393;-52
2021/09/17 05:27:48;;;;;;;18.45;11.70;;;13.80;99.90;;;;;;5080709;28;20380;-55
2021/09/17 05:30:13;;;;;;;17.92;11.60;;;13.90;99.90;;;;;;5081315;28;20388;-53
2021/09/17 05:32:39;;;;;;;19.40;11.80;;;14.00;99.90;;;;;;5073361;28;20375;-53
2021/09/17 05:35:06;;;;;;;21.58;11.57;;;14.10;99.90;;;;;;5092520;28;20408;-54
2021/09/17 05:37:32;;;;;;;20.92;11.80;;;14.10;99.90;;;;;;5072584;28;20388;-55
2021/09/17 05:39:58;;;;;;;19.30;11.20;;;14.20;99.90;;;;;;5072018;28;21109;-54
2021/09/17 05:42:24;;;;;;;16.55;10.60;;;14.20;99.90;;;;;;5073154;28;20821;-54
2021/09/17 05:44:49;;;;;;;18.08;11.13;;;14.20;99.90;;;;;;5072125;28;20388;-54
2021/09/17 05:47:15;;;;;;;16.67;10.67;;;14.30;99.90;;;;;;5072670;28;20404;-58
2021/09/17 05:49:41;;;;;;;18.60;10.60;;;14.50;99.90;;;;;;5062243;28;20749;-54
2021/09/17 05:52:07;;;;;;;16.83;10.67;;;14.60;99.90;;;;;;5072206;28;20422;-55
2021/09/17 05:54:32;;;;;;;16.10;10.45;;;14.60;99.90;;;;;;5071441;28;20447;-55
2021/09/17 05:57:01;;;;;;;16.37;10.50;;;14.80;99.90;;;;;;5072321;28;20398;-55
2021/09/17 05:59:27;;;;;;;18.85;10.95;;;14.80;99.90;;;;;;5071851;28;20384;-55
2021/09/17 06:01:52;;;;;;;16.07;10.43;;;15.00;99.90;;;;;;5071191;28;20379;-55
2021/09/17 06:04:18;;;;;;;15.50;10.20;;;15.00;99.90;;;;;;5071991;28;20429;-54
2021/09/17 06:06:47;;;;;;;18.27;10.57;;;15.10;99.90;;;;;;5070929;28;20627;-55
2021/09/17 06:09:13;;;;;;;15.77;9.85;;;15.10;99.90;;;;;;5071974;28;20422;-54
2021/09/17 06:11:39;;;;;;;18.73;10.20;;;15.20;99.90;;;;;;5070806;28;20466;-55
2021/09/17 06:14:04;;;;;;;15.80;10.57;;;15.20;99.90;;;;;;5072092;28;20456;-55
2021/09/17 06:16:30;;;;;;;15.68;10.10;;;15.20;99.90;;;;;;5071852;28;20410;-55
2021/09/17 06:19:02;;;;;;;17.17;10.48;;;15.30;99.90;;;;;;5071107;28;20380;-54
2021/09/17 06:21:32;;;;;;;15.73;9.93;;;15.30;99.90;;;;;;5071862;28;20470;-54
2021/09/17 06:23:59;;;;;;;14.18;9.20;;;15.40;99.90;;;;;;5070779;28;20376;-55
2021/09/17 06:26:24;;;;;;;17.40;10.40;;;15.70;99.90;;;;;;5071736;28;20415;-55
2021/09/17 06:28:50;;;;;;;14.17;9.47;;;15.70;99.90;;;;;;5070431;28;20884;-55
2021/09/17 06:31:16;;;;;;;14.17;9.30;;;15.60;99.90;;;;;;5071727;28;20380;-55
2021/09/17 06:33:42;;;;;;;15.05;9.40;;;15.60;99.90;;;;;;5070908;28;20437;-56
2021/09/17 06:36:07;;;;;;;16.10;9.60;;;15.80;99.90;;;;;;5071149;28;20494;-55
2021/09/17 06:38:33;;;;;;;15.95;9.60;;;15.80;99.90;;;;;;5070113;28;20405;-55
2021/09/17 06:40:59;;;;;;;13.97;9.33;;;15.70;99.90;;;;;;5071172;28;20714;-55
2021/09/17 06:43:25;;;;;;;15.60;9.05;;;15.80;99.90;;;;;;5071495;28;20390;-55
2021/09/17 06:45:50;;;;;;;17.73;9.43;;;15.80;99.90;;;;;;5070685;28;20418;-55
2021/09/17 06:48:17;;;;;;;16.33;9.27;;;15.90;99.90;;;;;;5071545;28;20449;-55
2021/09/17 06:50:43;;;;;;;13.13;9.15;;;16.00;99.90;;;;;;5069953;28;20857;-55
2021/09/17 06:53:09;;;;;;;16.77;10.70;;;16.00;99.90;;;;;;5071238;28;20463;-55
2021/09/17 06:55:35;;;;;;;14.77;9.23;;;16.00;99.90;;;;;;5070382;28;20415;-55
2021/09/17 06:58:03;;;;;;;14.07;9.50;;;16.00;99.90;;;;;;5070850;28;20429;-55
2021/09/17 07:00:31;;;;;;;16.85;9.88;;;16.20;99.90;;;;;;5071520;28;20379;-55
2021/09/17 07:02:57;;;;;;;13.43;9.43;;;16.30;99.90;;;;;;5070512;28;20754;-55
2021/09/17 07:05:24;;;;;;;16.55;9.70;;;16.40;99.90;;;;;;5070803;28;20810;-54
2021/09/17 07:07:50;;;;;;;14.47;9.70;;;16.60;99.90;;;;;;5069983;28;20372;-55
2021/09/17 07:10:17;;;;;;;14.60;9.48;;;16.70;99.90;;;;;;5070578;28;20386;-55
2021/09/17 07:12:44;;;;;;;13.87;9.33;;;16.80;99.90;;;;;;5070274;28;20404;-55
2021/09/17 07:15:12;;;;;;;17.63;9.50;;;16.90;99.90;;;;;;5070704;28;20403;-55
2021/09/17 07:17:38;;;;;;;15.77;9.60;;;16.80;99.90;;;;;;5068683;28;20431;-55
2021/09/17 07:20:04;;;;;;;16.70;10.07;;;16.90;99.90;;;;;;5069673;28;20379;-56
2021/09/17 07:22:30;;;;;;;15.00;9.45;;;17.10;99.90;;;;;;5070206;28;20380;-53
2021/09/17 07:24:55;;;;;;;16.95;10.35;;;17.20;99.90;;;;;;5069582;28;20463;-55
2021/09/17 07:27:21;;;;;;;17.20;10.80;;;17.10;99.90;;;;;;5070388;28;20389;-55
2021/09/17 07:29:47;;;;;;;18.83;11.67;;;17.00;99.90;;;;;;5069589;28;20399;-55
2021/09/17 07:32:12;;;;;;;16.70;10.80;;;16.90;99.90;;;;;;5070523;28;20383;-55
2021/09/17 07:34:38;;;;;;;16.83;10.40;;;16.80;99.90;;;;;;5069602;28;20469;-55
2021/09/17 07:37:04;;;;;;;17.00;10.90;;;17.00;99.90;;;;;;5070117;28;20413;-55
2021/09/17 07:39:30;;;;;;;17.07;10.90;;;17.00;99.90;;;;;;5069411;28;20399;-55
2021/09/17 07:41:56;;;;;;;17.50;11.68;;;16.90;99.90;;;;;;5069736;28;20754;-55
2021/09/17 07:44:21;;;;;;;15.23;10.65;;;17.00;99.90;;;;;;5070220;28;20368;-55
2021/09/17 07:46:47;;;;;;;17.88;11.57;;;17.20;99.90;;;;;;5069595;28;20714;-55
2021/09/17 07:49:13;;;;;;;22.00;11.80;;;17.50;99.90;;;;;;5070023;28;20468;-55
2021/09/17 07:51:38;;;;;;;17.45;11.38;;;17.60;99.90;;;;;;5068893;28;20868;-55
2021/09/17 07:54:04;;;;;;;18.23;11.32;;;17.40;99.90;;;;;;5069235;28;20372;-55
2021/09/17 07:56:30;;;;;;;19.87;11.10;;;17.40;99.90;;;;;;5069945;28;20408;-55
2021/09/17 07:58:55;;;;;;;17.90;11.37;;;17.30;99.90;;;;;;5069268;28;20921;-55
2021/09/17 08:01:21;;;;;;;19.25;11.82;;;17.30;99.90;;;;;;5070010;28;20437;-55
2021/09/17 08:03:47;;;;;;;17.70;11.43;;;17.30;99.90;;;;;;5067472;28;20873;-54
2021/09/17 08:06:14;;;;;;;21.30;12.03;;;17.40;99.90;;;;;;5069906;28;20388;-55
2021/09/17 08:08:41;;;;;;;19.27;11.70;;;17.50;99.90;;;;;;5059290;28;20389;-55
2021/09/17 08:11:07;;;;;;;17.35;10.77;;;17.50;99.90;;;;;;5065812;28;20423;-53
2021/09/17 08:13:33;;;;;;;16.70;11.43;;;17.70;99.90;;;;;;5065349;28;20392;-53
2021/09/17 08:15:59;;;;;;;19.33;11.65;;;18.00;99.90;;;;;;5060284;28;20439;-53
2021/09/17 08:18:25;;;;;;;19.53;11.90;;;17.90;99.90;;;;;;5061628;28;20395;-53
2021/09/17 08:20:53;;;;;;;20.73;13.00;;;17.90;99.90;;;;;;5068252;28;20503;-53
2021/09/17 08:23:20;;;;;;;20.08;12.40;;;17.90;99.90;;;;;;5068992;28;20463;-52
2021/09/17 08:25:47;;;;;;;17.02;11.93;;;17.90;99.90;;;;;;5068679;28;20398;-53
2021/09/17 08:28:13;;;;;;;19.13;12.43;;;18.00;99.90;;;;;;5069172;28;20376;-53
2021/09/17 08:30:38;;;;;;;16.07;11.40;;;18.10;99.90;;;;;;5066580;28;20448;-53
2021/09/17 08:33:04;;;;;;;18.27;11.60;;;18.30;99.90;;;;;;5062496;28;20487;-53
2021/09/17 08:35:30;;;;;;;18.55;11.90;;;18.50;99.90;;;;;;5063822;28;20457;-53
2021/09/17 08:37:55;;;;;;;18.13;11.70;;;18.60;99.90;;;;;;5064849;28;21017;-54
2021/09/17 08:40:21;;;;;;;21.67;12.83;;;18.70;99.90;;;;;;5069157;28;20422;-53
2021/09/17 08:42:47;;;;;;;18.55;12.30;;;18.90;99.90;;;;;;5062337;28;20386;-53
2021/09/17 08:45:13;;;;;;;18.58;12.15;;;18.80;99.90;;;;;;5066510;28;20397;-53
2021/09/17 08:47:39;;;;;;;16.70;12.00;;;18.90;99.90;;;;;;5064147;28;20434;-53
2021/09/17 08:50:05;;;;;;;19.40;11.60;;;19.20;99.90;;;;;;5067981;28;20409;-53
2021/09/17 08:52:31;;;;;;;19.27;12.60;;;19.60;99.90;;;;;;5071433;28;20371;-54
2021/09/17 08:54:58;;;;;;;18.73;12.30;;;19.80;99.90;;;;;;5068152;28;21390;-54
2021/09/17 08:57:24;;;;;;;18.02;12.45;;;19.70;99.90;;;;;;5066324;28;20419;-53
2021/09/17 08:59:50;;;;;;;18.30;12.37;;;19.60;99.90;;;;;;5069467;28;20888;-54
2021/09/17 09:02:29;;;;;;;18.95;11.95;;;19.70;99.90;;;;;;5070709;28;20411;-54
2021/09/17 09:05:06;;;;;;;17.95;11.90;;;19.90;99.90;;;;;;5050889;28;20520;-54
2021/09/17 09:07:38;;;;;;;16.45;11.73;;;20.00;99.90;;;;;;5066661;28;20406;-54
2021/09/17 09:10:11;;;;;;;16.92;11.50;;;19.80;99.90;;;;;;5068578;28;20394;-54
2021/09/17 09:12:49;;;;;;;17.02;11.45;;;20.00;99.90;;;;;;5064691;28;20870;-54
2021/09/17 09:15:26;;;;;;;20.20;12.68;;;20.30;99.90;;;;;;5069847;28;20466;-54
2021/09/17 09:18:11;;;;;;;19.98;12.77;;;20.80;99.90;;;;;;5063043;28;20395;-54
2021/09/17 09:20:42;;;;;;;21.10;13.73;;;20.50;99.90;;;;;;5063879;28;20387;-54
2021/09/17 09:23:19;;;;;;;22.48;13.00;;;21.00;99.90;;;;;;5066071;28;20395;-54
2021/09/17 09:26:04;;;;;;;23.40;14.80;;;20.20;99.90;;;;;;5059171;28;20784;-54
2021/09/17 09:28:35;;;;;;;17.85;12.10;;;20.20;99.90;;;;;;5060399;28;20428;-54
2021/09/17 09:31:15;;;;;;;20.75;14.23;;;20.60;99.90;;;;;;5057749;28;20393;-54
2021/09/17 09:33:43;;;;;;;19.17;13.13;;;20.90;99.90;;;;;;5061075;28;20898;-54
2021/09/17 09:36:12;;;;;;;21.10;14.63;;;20.90;99.90;;;;;;5061936;28;20804;-54
2021/09/17 09:38:40;;;;;;;24.20;13.98;;;20.70;99.90;;;;;;5067899;28;20421;-55
2021/09/17 09:41:11;;;;;;;23.50;13.67;;;20.80;99.90;;;;;;5068889;28;20442;-55
2021/09/17 09:43:52;;;;;;;19.33;13.25;;;21.00;99.90;;;;;;5066755;28;20388;-55
2021/09/17 09:46:38;;;;;;;20.70;13.05;;;21.40;99.90;;;;;;5069208;28;20399;-54
2021/09/17 09:49:26;;;;;;;21.80;14.00;;;21.40;99.90;;;;;;5063841;28;20419;-55
2021/09/17 09:51:53;;;;;;;19.90;14.27;;;21.60;99.90;;;;;;5066191;28;20395;-55
2021/09/17 09:54:23;;;;;;;20.48;13.48;;;22.00;99.90;;;;;;5068749;28;21850;-55
2021/09/17 09:56:49;;;;;;;22.88;13.93;;;22.20;99.90;;;;;;5067492;28;20413;-55
2021/09/17 09:59:19;;;;;;;18.90;14.00;;;22.10;99.90;;;;;;5068592;28;20980;-55
2021/09/17 10:01:45;;;;;;;18.70;13.15;;;22.00;99.90;;;;;;5066974;28;20426;-55
2021/09/17 10:04:11;;;;;;;19.98;13.48;;;22.00;99.90;;;;;;5070971;28;20916;-55
2021/09/17 10:06:38;;;;;;;19.10;13.43;;;21.80;99.90;;;;;;5070244;28;20471;-55
2021/09/17 10:09:09;;;;;;;21.50;13.50;;;21.70;99.90;;;;;;5067993;28;20396;-55
2021/09/17 10:11:36;;;;;;;19.75;14.98;;;21.70;99.90;;;;;;5069999;28;20410;-54
2021/09/17 10:14:03;;;;;;;20.45;13.20;;;22.10;99.90;;;;;;5065747;28;20873;-55
2021/09/17 10:16:32;;;;;;;18.20;11.83;;;22.10;99.90;;;;;;5063472;28;20824;-55
2021/09/17 10:18:59;;;;;;;19.42;12.65;;;22.30;99.90;;;;;;5060423;28;20410;-55
2021/09/17 10:21:49;;;;;;;18.10;12.80;;;22.60;99.90;;;;;;5068201;28;20390;-55
2021/09/17 10:24:27;;;;;;;21.50;13.30;;;23.00;99.90;;;;;;5072997;28;20895;-55
2021/09/17 10:27:12;;;;;;;19.73;12.93;;;23.10;99.90;;;;;;5067774;28;20400;-55
2021/09/17 10:29:43;;;;;;;17.83;12.45;;;23.20;99.90;;;;;;5068807;28;20401;-55
2021/09/17 10:32:31;;;;;;;18.60;12.63;;;23.20;99.90;;;;;;5065268;28;20824;-55
2021/09/17 10:35:10;;;;;;;16.97;12.10;;;23.20;99.90;;;;;;5072992;28;20435;-55
2021/09/17 10:37:49;;;;;;;17.70;13.10;;;23.40;99.90;;;;;;5070017;28;21154;-55
2021/09/17 10:40:15;;;;;;;17.95;13.90;;;23.90;99.90;;;;;;5062549;28;20442;-55
2021/09/17 10:43:08;;;;;;;17.90;13.20;;;24.00;99.90;;;;;;5059567;28;20436;-55
2021/09/17 10:45:38;;;;;;;17.58;12.30;;;24.10;99.90;;;;;;5051104;28;20394;-55
2021/09/17 10:48:05;;;;;;;15.25;11.15;;;23.90;99.90;;;;;;5050468;28;20401;-55
2021/09/17 10:50:40;;;;;;;15.82;11.13;;;23.80;99.90;;;;;;5051703;28;20380;-55
2021/09/17 10:53:06;;;;;;;17.80;12.68;;;23.70;99.90;;;;;;5051066;28;20464;-55
2021/09/17 10:56:02;;;;;;;17.67;11.87;;;23.60;99.90;;;;;;5050898;28;20512;-55
2021/09/17 10:58:30;;;;;;;16.50;11.55;;;23.50;99.90;;;;;;5063142;28;20392;-55
2021/09/17 11:01:11;;;;;;;17.00;11.40;;;22.80;99.90;;;;;;5070548;28;20427;-55
2021/09/17 11:03:39;;;;;;;16.77;11.88;;;22.70;99.90;;;;;;5071017;28;20379;-55
2021/09/17 11:06:21;;;;;;;18.27;12.57;;;23.20;99.90;;;;;;5070403;28;20388;-55
2021/09/17 11:08:48;;;;;;;19.40;12.60;;;23.30;99.90;;;;;;5069961;28;20411;-55
2021/09/17 11:11:32;;;;;;;18.73;12.55;;;23.30;99.90;;;;;;5070762;28;20445;-55
2021/09/17 11:14:00;;;;;;;17.43;12.53;;;23.10;99.90;;;;;;5070083;28;21031;-53
2021/09/17 11:16:27;;;;;;;17.20;12.40;;;24.00;99.90;;;;;;5070283;28;20404;-54
2021/09/17 11:18:54;;;;;;;15.75;11.27;;;24.10;99.90;;;;;;5070065;28;20486;-55
2021/09/17 11:21:21;;;;;;;16.58;11.02;;;24.00;99.90;;;;;;5070388;28;20454;-54
2021/09/17 11:23:51;;;;;;;12.43;8.90;;;23.80;99.90;;;;;;5069903;28;20383;-54
2021/09/17 11:26:29;;;;;;;13.25;8.23;;;23.60;99.90;;;;;;5070421;28;20889;-55
2021/09/17 11:29:06;;;;;;;12.15;8.15;;;23.20;99.90;;;;;;5069795;28;20499;-55
2021/09/17 11:31:35;;;;;;;13.10;7.90;;;22.70;99.90;;;;;;5070672;28;20470;-55
2021/09/17 11:34:08;;;;;;;12.43;8.07;;;22.40;99.90;;;;;;5069529;28;20869;-55
2021/09/17 11:36:55;;;;;;;11.48;8.10;;;22.30;99.90;;;;;;5070401;28;20507;-55
2021/09/17 11:39:28;;;;;;;13.20;7.50;;;22.20;99.90;;;;;;5070205;28;20478;-55
2021/09/17 11:42:02;;;;;;;10.98;7.68;;;22.10;99.90;;;;;;5069490;28;20388;-55
2021/09/17 11:44:37;;;;;;;13.52;8.18;;;22.20;99.90;;;;;;5070244;28;20472;-55
2021/09/17 11:47:14;;;;;;;10.65;7.70;;;22.00;99.90;;;;;;5064892;28;20487;-55
2021/09/17 11:49:44;;;;;;;11.20;7.70;;;21.90;99.90;;;;;;5066096;28;20388;-55
2021/09/17 11:52:12;;;;;;;12.13;8.00;;;22.00;99.90;;;;;;5068307;28;20817;-55
2021/09/17 11:54:38;;;;;;;10.63;7.82;;;22.00;99.90;;;;;;5068448;28;20420;-55
2021/09/17 11:57:09;;;;;;;10.87;7.27;;;21.80;99.90;;;;;;5067505;28;20888;-55
2021/09/17 11:59:44;;;;;;;10.60;7.10;;;21.80;99.90;;;;;;5066440;28;20380;-55
2021/09/17 12:02:16;;;;;;;9.20;6.00;;;21.70;99.90;;;;;;5063147;28;20396;-55
2021/09/17 12:04:45;;;;;;;10.50;6.70;;;21.60;99.90;;;;;;5066489;28;20396;-55
2021/09/17 12:07:11;;;;;;;10.40;7.10;;;21.80;99.90;;;;;;5067660;28;20865;-55
2021/09/17 12:09:37;;;;;;;11.00;7.20;;;22.00;99.90;;;;;;5067560;28;20387;-55
2021/09/17 12:12:03;;;;;;;9.38;6.00;;;22.00;99.90;;;;;;5052487;28;20385;-55
2021/09/17 12:14:28;;;;;;;10.75;6.00;;;22.10;99.90;;;;;;5057606;28;20403;-55
2021/09/17 12:17:02;;;;;;;11.35;6.30;;;22.40;99.90;;;;;;5061124;28;20983;-55
2021/09/17 12:19:28;;;;;;;9.13;5.28;;;22.50;99.90;;;;;;5063828;28;20479;-55
2021/09/17 12:22:01;;;;;;;8.70;5.30;;;22.40;99.90;;;;;;5062834;28;20387;-55
2021/09/17 12:24:27;;;;;;;9.05;5.63;;;22.40;99.90;;;;;;5065280;28;20423;-55
2021/09/17 12:26:59;;;;;;;10.85;4.78;;;22.50;99.90;;;;;;5062397;28;21003;-55
2021/09/17 12:29:25;;;;;;;7.60;4.00;;;22.50;99.90;;;;;;5064258;28;20379;-55
2021/09/17 12:31:52;;;;;;;7.25;4.25;;;22.50;99.90;;;;;;5062063;28;20432;-55
2021/09/17 12:34:20;;;;;;;8.43;6.10;;;22.50;99.60;;;;;;5066602;28;20380;-56
2021/09/17 12:36:52;;;;;;;10.07;6.38;;;22.50;99.90;;;;;;5062928;28;20407;-56